KVPS

Eglin AFB / Destin-Ft Walton Beach Airport

Valparaiso/Destin-Ft Walton Beach, Florida, USA
TAF KVPS 221000Z 2210/2316 09010KT 9999 FEW030 QNH3030INS BECMG 2211/2212 12012KT 9999 BKN020 QNH3031INS WND 12012G18KT AFT 2215 BECMG 2217/2218 15015G20KT 9999 BKN030 QNH3019INS WND 13015KT AFT 2224 BECMG 2306/2307 13015KT 9999 VCSH BKN020 QNH3009INS BECMG 2314/2315 15015G25KT 9999 -SHRA BKN010 QNH3006INS TX16/2309Z TN05/2210Z
Issued Valid From Valid To
Jan-22 @ 10:00 UTC
(7 hours ago)
Jan-22 @ 10:00 UTC
(7 hours ago)
Jan-23 @ 16:00 UTC
(in 23 hours)
Expired Click to View Jan-22 @ 10:00 to Jan-22 @ 11:00
TAF KVPS 221000Z 2210/2316 09010KT 9999 FEW030 QNH3030INS
Wind Visibility Clouds Readings
90° at 10 knots Greater than 6 miles
  • Few at 3,000' AGL
Altimeter 30.3" Hg
Pressure 1025.92 hPa
Becoming Jan-22 @ 11:00 to Jan-22 @ 17:00
BECMG 2211/2212 12012KT 9999 BKN020 QNH3031INS WND 12012G18KT AFT 2215
Wind Visibility Clouds Readings
120° at 12 knots Greater than 6 miles
  • Broken at 2,000' AGL
Altimeter 30.3" Hg
Pressure 1025.92 hPa
Becoming Jan-22 @ 17:00 to Jan-23 @ 06:00
BECMG 2217/2218 15015G20KT 9999 BKN030 QNH3019INS WND 13015KT AFT 2224
Wind Visibility Clouds Readings
150° at 15 knots
 Gusting to 20 knots
Greater than 6 miles
  • Broken at 3,000' AGL
Altimeter 30.18" Hg
Pressure 1021.92 hPa
Becoming Jan-23 @ 06:00 to Jan-23 @ 14:00
BECMG 2306/2307 13015KT 9999 VCSH BKN020 QNH3009INS
Wind Visibility Clouds Readings
130° at 15 knots Greater than 6 miles
  • Broken at 2,000' AGL
Altimeter 30.09" Hg
Pressure 1018.92 hPa
Becoming Jan-23 @ 14:00 to Jan-23 @ 16:00
BECMG 2314/2315 15015G25KT 9999 -SHRA BKN010 QNH3006INS TX16/2309Z TN05/2210Z
Wind Visibility Clouds Conditions Readings
150° at 15 knots
 Gusting to 25 knots
Greater than 6 miles
  • Broken at 1,000' AGL
  • Light Rain
Altimeter 30.06" Hg
Pressure 1017.92 hPa
TAF KVPS 221000Z 2210/2316 09010KT 9999 FEW030 QNH3030INS BECMG 2211/2212 12012KT 9999 BKN020 QNH3031INS WND 12012G18KT AFT 2215 BECMG 2217/2218 15015G20KT 9999 BKN030 QNH3019INS WND 13015KT AFT 2224 BECMG 2306/2307 13015KT 9999 VCSH BKN020 QNH3009INS BECMG 2314/2315 15015G25KT 9999 -SHRA BKN010 QNH3006INS TX16/2309Z TN05/2210Z
Issued Jan-22 @ 10:00 UTC
(7 hours ago)
Valid From Jan-22 @ 10:00 UTC
(7 hours ago)
Valid To Jan-23 @ 16:00 UTC
(in 23 hours)
Jan-22 @ 10:00 - Jan-22 @ 11:00
Wind Visibility
90° at 10 knots Greater than 6 miles
Clouds
  • Few at 3,000' AGL
Becoming Jan-22 @ 11:00 - Jan-22 @ 17:00
Wind Visibility
120° at 12 knots Greater than 6 miles
Clouds
  • Broken at 2,000' AGL
Becoming Jan-22 @ 17:00 - Jan-23 @ 06:00
Wind Visibility
150° at 15 knots
 Gusting to 20 knots
Greater than 6 miles
Clouds
  • Broken at 3,000' AGL
Becoming Jan-23 @ 06:00 - Jan-23 @ 14:00
Wind Visibility
130° at 15 knots Greater than 6 miles
Clouds
  • Broken at 2,000' AGL
Becoming Jan-23 @ 14:00 - Jan-23 @ 16:00
Wind Visibility
150° at 15 knots
 Gusting to 25 knots
Greater than 6 miles
Clouds
  • Broken at 1,000' AGL
Conditions
  • Light Rain